OMDB

Dubai International Airport

Dubai, United Arab Emirates
METAR OMDB 130200Z 17004KT 140V200 CAVOK 19/15 Q1019 NOSIG
Observed Flight Rules
Dec-13 @ 02:00 UTC (33 minutes ago) Visual Flight Rules
Wind Visibility Clouds
170° at 4 knots 10,000+ meters
  • Clear skies
Temperatures Readings
Current 19°C / 66°F
Dewpoint 15°C / 59°F
Humidity 78%
Altimeter 30.09" Hg
Pressure 1019 hPa
Elevation 5
METAR OMDB 130200Z 17004KT 140V200 CAVOK 19/15 Q1019 NOSIG
Observed Flight Rules
Dec-13 @ 02:00 UTC
(33 minutes ago)
VFR
Wind Visibility
170° at 4 knots 10,000+ meters
Clouds
  • Clear skies
Temperature Dewpoint
19°C / 66°F 15°C / 59°F
Humidity Altimeter Pressure
78% 30.09" Hg 1019 hPa